createdAt,value
2023-01-17T00:00:04.823Z,85.27
2023-01-17T00:02:35.517Z,85.31
2023-01-17T00:05:25.520Z,85.32
2023-01-17T00:08:14.377Z,85.25
2023-01-17T00:10:44.893Z,85.29
2023-01-17T00:13:15.288Z,85.30
2023-01-17T00:15:45.053Z,85.46
2023-01-17T00:18:16.606Z,85.48
2023-01-17T00:21:05.147Z,85.45
2023-01-17T00:23:54.199Z,85.13
2023-01-17T00:26:24.597Z,85.09
2023-01-17T00:28:54.288Z,85.27
2023-01-17T00:31:24.309Z,85.29
2023-01-17T00:33:54.731Z,85.36
2023-01-17T00:36:25.880Z,85.25
2023-01-17T00:38:55.804Z,85.11
2023-01-17T00:41:25.333Z,85.16
2023-01-17T00:44:13.474Z,85.16
2023-01-17T00:47:03.282Z,84.88
2023-01-17T00:49:52.385Z,85.04
2023-01-17T00:52:41.595Z,84.76
2023-01-17T00:55:30.236Z,84.80
2023-01-17T00:58:19.240Z,85.08
2023-01-17T01:01:08.820Z,85.18
2023-01-17T01:03:57.776Z,85.13
2023-01-17T01:06:47.723Z,85.36
2023-01-17T01:09:37.769Z,85.18
2023-01-17T01:12:27.017Z,85.35
2023-01-17T01:15:15.508Z,85.40
2023-01-17T01:18:03.723Z,85.75
2023-01-17T01:20:52.922Z,85.83
2023-01-17T01:23:43.010Z,85.64
2023-01-17T01:26:31.981Z,85.71
2023-01-17T01:29:20.160Z,85.62
2023-01-17T01:32:09.162Z,85.52
2023-01-17T01:34:40.343Z,85.65
2023-01-17T01:37:10.507Z,85.87
2023-01-17T01:39:40.240Z,85.72
2023-01-17T01:42:17.396Z,85.89
2023-01-17T01:44:57.172Z,85.44
2023-01-17T01:47:37.372Z,85.43
2023-01-17T01:50:11.648Z,85.73
2023-01-17T01:52:46.507Z,85.61
2023-01-17T01:55:30.404Z,85.45
2023-01-17T01:58:05.820Z,85.63
2023-01-17T02:00:39.802Z,85.83
2023-01-17T02:03:16.503Z,85.81
2023-01-17T02:05:48.387Z,85.78
2023-01-17T02:08:22.086Z,85.67
2023-01-17T02:10:53.590Z,85.67
2023-01-17T02:13:25.986Z,85.82
2023-01-17T02:16:16.004Z,85.76
2023-01-17T02:18:54.572Z,86.19
2023-01-17T02:21:27.340Z,85.91
2023-01-17T02:24:13.202Z,85.91
2023-01-17T02:26:51.655Z,85.58
2023-01-17T02:29:46.468Z,85.47
2023-01-17T02:32:37.158Z,85.57
2023-01-17T02:35:29.313Z,85.65
2023-01-17T02:38:04.897Z,85.43
2023-01-17T02:40:42.959Z,85.92
2023-01-17T02:43:17.410Z,85.81
2023-01-17T02:45:49.898Z,85.60
2023-01-17T02:48:26.451Z,85.93
2023-01-17T02:51:23.913Z,85.94
2023-01-17T02:54:12.061Z,86.15
2023-01-17T02:57:13.949Z,85.98
2023-01-17T03:00:07.302Z,86.03
2023-01-17T03:03:18.408Z,85.91
2023-01-17T03:05:57.431Z,86.43
2023-01-17T03:08:29.491Z,86.15
2023-01-17T03:11:03.000Z,86.64
2023-01-17T03:13:33.925Z,86.41
2023-01-17T03:16:11.918Z,86.86
2023-01-17T03:18:43.522Z,87.38
2023-01-17T03:21:14.381Z,87.59
2023-01-17T03:23:46.300Z,87.60
2023-01-17T03:26:16.784Z,87.89
2023-01-17T03:28:47.121Z,88.26
2023-01-17T03:31:19.026Z,88.60
2023-01-17T03:33:50.018Z,89.06
2023-01-17T03:36:21.419Z,89.60
2023-01-17T03:38:52.078Z,90.10
2023-01-17T03:41:24.015Z,90.54
2023-01-17T03:43:54.112Z,90.74
2023-01-17T03:46:28.857Z,91.07
2023-01-17T03:49:00.852Z,91.34
2023-01-17T03:51:32.778Z,91.71
2023-01-17T03:54:02.923Z,91.99
2023-01-17T03:56:32.654Z,92.19
2023-01-17T03:59:03.532Z,92.52
2023-01-17T04:01:34.551Z,92.64
2023-01-17T04:04:04.342Z,92.76
2023-01-17T04:06:36.221Z,92.94
2023-01-17T04:09:07.588Z,93.06
2023-01-17T04:11:39.017Z,93.18
2023-01-17T04:14:09.000Z,93.19
2023-01-17T04:16:40.423Z,93.36
2023-01-17T04:19:15.358Z,93.47
2023-01-17T04:21:46.159Z,93.57
2023-01-17T04:24:17.898Z,93.81
2023-01-17T04:26:48.223Z,93.93
2023-01-17T04:29:18.588Z,93.96
2023-01-17T04:31:50.873Z,94.07
2023-01-17T04:34:20.860Z,94.12
2023-01-17T04:36:51.013Z,94.21
2023-01-17T04:39:21.479Z,94.36
2023-01-17T04:41:51.503Z,94.44
2023-01-17T04:44:22.355Z,94.54
2023-01-17T04:46:52.477Z,94.74
2023-01-17T04:49:23.586Z,94.70
2023-01-17T04:51:53.865Z,94.83
2023-01-17T04:54:24.862Z,95.00
2023-01-17T04:56:56.457Z,95.14
2023-01-17T04:59:26.405Z,95.33
2023-01-17T05:01:56.172Z,95.36
2023-01-17T05:04:26.841Z,95.58
2023-01-17T05:06:56.579Z,95.53
2023-01-17T05:09:27.653Z,95.19
2023-01-17T05:11:59.508Z,95.03
2023-01-17T05:14:30.282Z,95.05
2023-01-17T05:17:00.624Z,95.16
2023-01-17T05:19:31.577Z,95.20
2023-01-17T05:22:04.946Z,95.24
2023-01-17T05:24:34.956Z,94.92
2023-01-17T05:27:04.972Z,94.69
2023-01-17T05:29:35.371Z,94.85
2023-01-17T05:32:05.801Z,95.11
2023-01-17T05:34:36.201Z,95.46
2023-01-17T05:37:05.900Z,95.62
2023-01-17T05:39:36.048Z,95.59
2023-01-17T05:42:06.483Z,95.96
2023-01-17T05:44:37.370Z,95.95
2023-01-17T05:47:07.765Z,96.10
2023-01-17T05:49:38.598Z,96.13
2023-01-17T05:52:09.709Z,96.49
2023-01-17T05:54:40.996Z,96.48
2023-01-17T05:57:11.501Z,96.44
2023-01-17T05:59:41.214Z,96.49
2023-01-17T06:02:12.975Z,96.48
2023-01-17T06:04:44.066Z,96.63
2023-01-17T06:07:14.038Z,96.59
2023-01-17T06:09:43.793Z,96.74
2023-01-17T06:12:14.674Z,96.74
2023-01-17T06:14:45.962Z,96.79
2023-01-17T06:17:16.833Z,96.87
2023-01-17T06:19:46.755Z,96.83
2023-01-17T06:22:17.215Z,96.82
2023-01-17T06:24:47.380Z,96.98
2023-01-17T06:27:17.588Z,97.10
2023-01-17T06:29:47.421Z,97.12
2023-01-17T06:32:17.417Z,97.09
2023-01-17T06:34:47.817Z,97.18
2023-01-17T06:37:18.563Z,97.04
2023-01-17T06:39:48.996Z,96.98
2023-01-17T06:42:19.712Z,97.09
2023-01-17T06:44:49.427Z,97.12
2023-01-17T06:47:20.135Z,97.16
2023-01-17T06:49:51.144Z,97.14
2023-01-17T06:52:21.280Z,97.24
2023-01-17T06:54:50.969Z,97.27
2023-01-17T06:57:21.359Z,97.20
2023-01-17T06:59:51.063Z,97.33
2023-01-17T07:02:21.811Z,97.41
2023-01-17T07:04:52.636Z,97.23
2023-01-17T07:07:23.745Z,97.20
2023-01-17T07:09:53.536Z,97.44
2023-01-17T07:12:24.184Z,97.22
2023-01-17T07:14:54.723Z,97.24
2023-01-17T07:17:27.285Z,97.36
2023-01-17T07:19:58.791Z,97.34
2023-01-17T07:22:29.480Z,97.47
2023-01-17T07:25:04.902Z,97.37
2023-01-17T07:27:35.486Z,97.47
2023-01-17T07:30:06.020Z,97.42
2023-01-17T07:32:36.441Z,97.43
2023-01-17T07:35:08.159Z,97.55
2023-01-17T07:37:40.537Z,97.54
2023-01-17T07:40:11.466Z,97.47
2023-01-17T07:42:42.338Z,97.47
2023-01-17T07:45:15.460Z,97.50
2023-01-17T07:47:46.233Z,97.50
2023-01-17T07:50:16.262Z,97.44
2023-01-17T07:52:51.835Z,97.49
2023-01-17T07:55:21.860Z,97.51
2023-01-17T07:57:52.899Z,97.54
2023-01-17T08:00:24.459Z,97.47
2023-01-17T08:03:01.804Z,97.49
2023-01-17T08:05:32.582Z,97.61
2023-01-17T08:08:03.633Z,97.60
2023-01-17T08:10:34.294Z,97.67
2023-01-17T08:13:04.115Z,97.64
2023-01-17T08:15:34.486Z,97.82
2023-01-17T08:18:04.431Z,97.89
2023-01-17T08:20:35.116Z,97.87
2023-01-17T08:23:06.389Z,97.94
2023-01-17T08:25:36.570Z,97.92
2023-01-17T08:28:07.856Z,97.97
2023-01-17T08:30:44.843Z,98.23
2023-01-17T08:33:15.216Z,98.19
2023-01-17T08:35:55.912Z,97.90
2023-01-17T08:38:27.053Z,97.88
2023-01-17T08:41:02.756Z,98.03
2023-01-17T08:43:33.918Z,98.12
2023-01-17T08:46:04.653Z,97.97
2023-01-17T08:48:34.365Z,97.91
2023-01-17T08:51:05.299Z,97.85
2023-01-17T08:53:36.071Z,97.88
2023-01-17T08:56:08.393Z,97.81
2023-01-17T08:58:38.902Z,97.75
2023-01-17T09:01:10.070Z,97.70
2023-01-17T09:03:41.248Z,97.56
2023-01-17T09:06:16.287Z,97.60
2023-01-17T09:08:50.722Z,97.62
2023-01-17T09:11:20.958Z,97.56
2023-01-17T09:13:51.857Z,97.48
2023-01-17T09:16:23.222Z,97.52
2023-01-17T09:19:00.562Z,97.43
2023-01-17T09:21:30.659Z,97.37
2023-01-17T09:24:00.702Z,97.24
2023-01-17T09:26:32.720Z,96.95
2023-01-17T09:29:02.763Z,96.80
2023-01-17T09:31:32.615Z,96.36
2023-01-17T09:34:02.974Z,96.09
2023-01-17T09:36:35.076Z,96.04
2023-01-17T09:39:06.409Z,95.73
2023-01-17T09:41:48.520Z,95.68
2023-01-17T09:44:21.178Z,95.46
2023-01-17T09:46:54.473Z,93.46
2023-01-17T09:49:37.176Z,92.14
2023-01-17T09:52:08.747Z,91.39
2023-01-17T09:54:44.047Z,91.09
2023-01-17T09:57:26.132Z,91.34
2023-01-17T10:00:19.645Z,91.21
2023-01-17T10:03:22.798Z,90.34
2023-01-17T10:06:05.355Z,82.76
2023-01-17T10:08:58.268Z,79.94
2023-01-17T10:12:07.403Z,77.20
2023-01-17T10:14:47.131Z,82.59
2023-01-17T10:17:32.620Z,85.64
2023-01-17T10:20:06.391Z,86.62
2023-01-17T10:23:17.620Z,86.15
2023-01-17T10:25:53.554Z,87.00
2023-01-17T10:28:39.769Z,86.34
2023-01-17T10:31:15.727Z,84.29
2023-01-17T10:34:04.985Z,81.92
2023-01-17T10:36:41.783Z,81.14
2023-01-17T10:39:24.962Z,81.33
2023-01-17T10:41:57.610Z,79.90
2023-01-17T10:44:52.130Z,79.01
2023-01-17T10:47:24.708Z,77.26
2023-01-17T10:50:04.187Z,78.28
2023-01-17T10:52:54.383Z,77.45
2023-01-17T10:55:41.392Z,75.76
2023-01-17T10:58:14.898Z,76.44
2023-01-17T11:01:04.259Z,76.40
2023-01-17T11:03:35.862Z,75.78
2023-01-17T11:06:20.046Z,73.99
2023-01-17T11:08:58.890Z,73.21
2023-01-17T11:11:34.884Z,71.20
2023-01-17T11:14:14.773Z,70.34
2023-01-17T11:16:46.211Z,69.45
2023-01-17T11:19:29.788Z,68.19
2023-01-17T11:22:07.761Z,67.16
2023-01-17T11:24:49.045Z,62.88
2023-01-17T11:27:35.048Z,63.53
2023-01-17T11:30:21.925Z,63.97
2023-01-17T11:33:09.105Z,62.60
2023-01-17T11:35:47.714Z,61.30
2023-01-17T11:38:23.470Z,61.60
2023-01-17T11:41:14.032Z,59.73
2023-01-17T11:43:59.879Z,61.23
2023-01-17T11:46:31.896Z,59.22
2023-01-17T11:49:03.563Z,60.02
2023-01-17T11:51:36.640Z,57.94
2023-01-17T11:54:41.070Z,60.44
2023-01-17T11:57:30.399Z,59.44
2023-01-17T12:00:31.845Z,59.07
2023-01-17T12:03:31.069Z,57.76
2023-01-17T12:06:21.631Z,58.38
2023-01-17T12:09:10.486Z,58.31
2023-01-17T12:12:24.086Z,58.59
2023-01-17T12:15:14.453Z,58.88
2023-01-17T12:18:10.148Z,57.79
2023-01-17T12:20:50.497Z,57.04
2023-01-17T12:24:14.838Z,58.01
2023-01-17T12:26:53.026Z,55.08
2023-01-17T12:29:44.823Z,54.73
2023-01-17T12:32:42.868Z,55.72
2023-01-17T12:35:22.109Z,56.01
2023-01-17T12:38:04.936Z,54.24
2023-01-17T12:40:59.232Z,56.01
2023-01-17T12:43:39.165Z,55.24
2023-01-17T12:46:45.927Z,56.09
2023-01-17T12:49:40.274Z,54.30
2023-01-17T12:52:50.477Z,53.97
2023-01-17T12:55:44.809Z,53.43
2023-01-17T12:58:23.647Z,55.68
2023-01-17T13:01:21.613Z,54.04
2023-01-17T13:03:57.844Z,52.19
2023-01-17T13:07:01.871Z,52.88
2023-01-17T13:09:39.158Z,54.41
2023-01-17T13:12:15.198Z,54.01
2023-01-17T13:14:48.376Z,53.23
2023-01-17T13:17:40.003Z,55.14
2023-01-17T13:20:33.024Z,54.75
2023-01-17T13:23:13.883Z,52.49
2023-01-17T13:26:03.255Z,53.76
2023-01-17T13:29:02.956Z,53.94
2023-01-17T13:32:08.593Z,54.35
2023-01-17T13:35:03.145Z,54.90
2023-01-17T13:37:53.549Z,55.21
2023-01-17T13:40:38.561Z,52.98
2023-01-17T13:43:25.068Z,54.12
2023-01-17T13:45:58.305Z,54.93
2023-01-17T13:48:31.091Z,54.53
2023-01-17T13:51:03.607Z,54.55
2023-01-17T13:53:40.997Z,51.86
2023-01-17T13:56:16.078Z,49.78
2023-01-17T13:58:55.938Z,53.37
2023-01-17T14:01:26.518Z,55.41
2023-01-17T14:03:57.590Z,54.43
2023-01-17T14:06:47.541Z,55.83
2023-01-17T14:09:31.799Z,57.04
2023-01-17T14:12:12.411Z,57.55
2023-01-17T14:14:46.234Z,56.96
2023-01-17T14:17:27.854Z,57.12
2023-01-17T14:20:18.628Z,58.03
2023-01-17T14:22:59.821Z,56.04
2023-01-17T14:25:31.383Z,55.85
2023-01-17T14:28:27.608Z,56.52
2023-01-17T14:30:59.340Z,55.73
2023-01-17T14:33:39.972Z,53.01
2023-01-17T14:36:38.054Z,54.28
2023-01-17T14:39:25.855Z,53.35
2023-01-17T14:41:56.410Z,52.68
2023-01-17T14:44:26.664Z,54.01
2023-01-17T14:46:59.411Z,57.35
2023-01-17T14:49:29.990Z,57.07
2023-01-17T14:52:05.113Z,58.03
2023-01-17T14:54:37.903Z,57.38
2023-01-17T14:57:29.619Z,57.32
2023-01-17T15:00:21.218Z,58.12
2023-01-17T15:02:53.632Z,56.45
2023-01-17T15:05:27.443Z,54.36
2023-01-17T15:07:59.929Z,56.10
2023-01-17T15:10:35.099Z,55.43
2023-01-17T15:13:11.124Z,55.64
2023-01-17T15:15:43.068Z,56.55
2023-01-17T15:18:20.644Z,52.82
2023-01-17T15:20:59.002Z,53.23
2023-01-17T15:23:42.011Z,53.67
2023-01-17T15:26:16.811Z,52.81
2023-01-17T15:28:48.426Z,52.79
2023-01-17T15:31:40.722Z,50.95
2023-01-17T15:34:35.477Z,52.39
2023-01-17T15:37:36.939Z,50.56
2023-01-17T15:40:28.068Z,54.86
2023-01-17T15:43:02.466Z,57.26
2023-01-17T15:45:35.125Z,57.64
2023-01-17T15:48:43.324Z,55.18
2023-01-17T15:51:15.056Z,53.58
2023-01-17T15:53:46.504Z,52.87
2023-01-17T15:56:36.234Z,52.38
2023-01-17T15:59:44.614Z,50.82
2023-01-17T16:02:46.061Z,51.42
2023-01-17T16:05:34.476Z,50.62
2023-01-17T16:08:06.097Z,51.21
2023-01-17T16:10:39.278Z,51.44
2023-01-17T16:13:12.674Z,51.49
2023-01-17T16:15:42.809Z,51.62
2023-01-17T16:18:27.033Z,52.88
2023-01-17T16:21:02.781Z,54.76
2023-01-17T16:23:33.118Z,57.47
2023-01-17T16:26:02.823Z,59.67
2023-01-17T16:28:34.280Z,54.75
2023-01-17T16:31:04.733Z,53.82
2023-01-17T16:33:34.809Z,53.93
2023-01-17T16:36:05.151Z,54.56
2023-01-17T16:38:34.965Z,55.13
2023-01-17T16:41:06.989Z,55.39
2023-01-17T16:43:37.505Z,58.59
2023-01-17T16:46:08.077Z,59.98
2023-01-17T16:48:39.827Z,60.02
2023-01-17T16:51:10.664Z,58.63
2023-01-17T16:53:40.689Z,55.21
2023-01-17T16:56:14.687Z,55.38
2023-01-17T16:58:45.682Z,54.60
2023-01-17T17:01:19.052Z,53.10
2023-01-17T17:03:50.121Z,54.74
2023-01-17T17:06:22.716Z,55.93
2023-01-17T17:08:52.888Z,58.39
2023-01-17T17:11:25.610Z,61.10
2023-01-17T17:13:56.852Z,61.87
2023-01-17T17:16:34.087Z,59.67
2023-01-17T17:19:09.790Z,58.51
2023-01-17T17:21:40.552Z,58.15
2023-01-17T17:24:15.966Z,55.54
2023-01-17T17:26:46.921Z,56.75
2023-01-17T17:29:17.669Z,54.96
2023-01-17T17:31:49.401Z,54.92
2023-01-17T17:34:20.323Z,54.90
2023-01-17T17:36:50.172Z,54.99
2023-01-17T17:39:20.509Z,55.58
2023-01-17T17:41:50.525Z,55.41
2023-01-17T17:44:21.930Z,52.65
2023-01-17T17:46:52.980Z,54.23
2023-01-17T17:49:24.308Z,54.53
2023-01-17T17:51:54.565Z,55.93
2023-01-17T17:54:26.073Z,54.91
2023-01-17T17:56:56.890Z,55.97
2023-01-17T17:59:28.031Z,57.06
2023-01-17T18:01:58.130Z,59.41
2023-01-17T18:04:29.156Z,58.70
2023-01-17T18:06:59.896Z,57.52
2023-01-17T18:09:30.581Z,57.22
2023-01-17T18:12:00.332Z,57.97
2023-01-17T18:14:33.940Z,55.82
2023-01-17T18:17:04.452Z,57.02
2023-01-17T18:19:39.155Z,56.65
2023-01-17T18:22:08.877Z,55.70
2023-01-17T18:24:38.770Z,58.01
2023-01-17T18:27:11.452Z,56.94
2023-01-17T18:29:42.964Z,56.75
2023-01-17T18:32:14.296Z,57.52
2023-01-17T18:34:44.838Z,56.28
2023-01-17T18:37:14.857Z,56.83
2023-01-17T18:39:45.667Z,57.43
2023-01-17T18:42:16.085Z,58.10
2023-01-17T18:44:46.564Z,56.69
2023-01-17T18:47:16.358Z,57.32
2023-01-17T18:49:46.991Z,58.13
2023-01-17T18:52:21.316Z,57.80
2023-01-17T18:54:51.677Z,56.93
2023-01-17T18:57:22.378Z,57.35
2023-01-17T18:59:53.167Z,58.02
2023-01-17T19:02:23.351Z,56.95
2023-01-17T19:04:54.246Z,56.59
2023-01-17T19:07:25.276Z,57.50
2023-01-17T19:09:55.578Z,57.82
2023-01-17T19:12:26.458Z,58.93
2023-01-17T19:14:57.384Z,58.90
2023-01-17T19:17:27.100Z,59.87
2023-01-17T19:19:57.394Z,59.03
2023-01-17T19:22:27.803Z,59.43
2023-01-17T19:24:59.579Z,59.33
2023-01-17T19:27:30.120Z,61.74
2023-01-17T19:30:00.723Z,61.91
2023-01-17T19:32:31.133Z,62.61
2023-01-17T19:35:01.562Z,63.11
2023-01-17T19:37:32.929Z,62.83
2023-01-17T19:40:03.375Z,64.17
2023-01-17T19:42:33.073Z,65.72
2023-01-17T19:45:04.042Z,65.61
2023-01-17T19:47:35.246Z,64.50
2023-01-17T19:50:09.553Z,65.26
2023-01-17T19:52:41.024Z,64.66
2023-01-17T19:55:12.044Z,65.29
2023-01-17T19:57:43.939Z,65.54
2023-01-17T20:00:15.941Z,65.53
2023-01-17T20:02:46.259Z,65.10
2023-01-17T20:05:16.224Z,66.69
2023-01-17T20:07:47.040Z,67.05
2023-01-17T20:10:18.893Z,67.87
2023-01-17T20:12:51.869Z,68.69
2023-01-17T20:15:29.379Z,68.83
2023-01-17T20:18:01.049Z,68.66
2023-01-17T20:20:36.029Z,68.47
2023-01-17T20:23:07.927Z,68.15
2023-01-17T20:25:38.198Z,68.91
2023-01-17T20:28:08.248Z,69.09
2023-01-17T20:30:39.095Z,69.55
2023-01-17T20:33:14.569Z,69.33
2023-01-17T20:35:44.487Z,70.14
2023-01-17T20:38:15.244Z,69.98
2023-01-17T20:40:46.933Z,69.77
2023-01-17T20:43:18.198Z,70.11
2023-01-17T20:45:56.803Z,69.74
2023-01-17T20:48:27.190Z,68.84
2023-01-17T20:50:57.029Z,69.41
2023-01-17T20:53:33.688Z,70.19
2023-01-17T20:56:05.208Z,69.69
2023-01-17T20:58:36.372Z,70.38
2023-01-17T21:01:08.267Z,69.47
2023-01-17T21:03:39.938Z,70.04
2023-01-17T21:06:12.515Z,70.07
2023-01-17T21:08:46.272Z,70.15
2023-01-17T21:11:20.480Z,70.77
2023-01-17T21:13:52.321Z,71.21
2023-01-17T21:16:24.087Z,71.58
2023-01-17T21:18:55.302Z,72.62
2023-01-17T21:21:30.572Z,72.73
2023-01-17T21:24:01.103Z,73.03
2023-01-17T21:26:31.337Z,73.15
2023-01-17T21:29:03.123Z,73.83
2023-01-17T21:31:36.229Z,74.22
2023-01-17T21:34:09.202Z,74.49
2023-01-17T21:36:43.836Z,74.46
2023-01-17T21:39:17.238Z,74.56
2023-01-17T21:41:50.584Z,75.05
2023-01-17T21:44:22.961Z,75.16
2023-01-17T21:46:56.360Z,75.61
2023-01-17T21:49:27.671Z,75.44
2023-01-17T21:51:58.589Z,75.70
2023-01-17T21:54:48.532Z,76.19
2023-01-17T21:57:40.420Z,76.52
2023-01-17T22:00:17.190Z,76.91
2023-01-17T22:02:50.137Z,76.93
2023-01-17T22:05:21.726Z,77.31
2023-01-17T22:08:11.994Z,77.69
2023-01-17T22:10:48.332Z,77.67
2023-01-17T22:13:21.678Z,77.33
2023-01-17T22:16:01.197Z,77.57
2023-01-17T22:18:32.502Z,77.67
2023-01-17T22:21:07.666Z,78.09
2023-01-17T22:23:40.598Z,78.24
2023-01-17T22:26:12.867Z,78.58
2023-01-17T22:28:44.147Z,78.88
2023-01-17T22:31:21.862Z,78.91
2023-01-17T22:34:03.463Z,79.21
2023-01-17T22:36:36.000Z,79.54
2023-01-17T22:39:06.298Z,79.68
2023-01-17T22:41:39.174Z,79.68
2023-01-17T22:44:10.406Z,79.83
2023-01-17T22:46:42.475Z,79.52
2023-01-17T22:49:15.232Z,79.76
2023-01-17T22:51:46.057Z,79.91
2023-01-17T22:54:17.034Z,80.13
2023-01-17T22:56:47.007Z,79.97
2023-01-17T22:59:17.693Z,80.21
2023-01-17T23:01:49.020Z,80.27
2023-01-17T23:04:19.737Z,80.31
2023-01-17T23:06:50.204Z,80.33
2023-01-17T23:09:20.459Z,80.36
2023-01-17T23:11:56.655Z,80.12
2023-01-17T23:14:53.414Z,80.17
2023-01-17T23:17:43.328Z,80.23
2023-01-17T23:20:13.659Z,80.18
2023-01-17T23:22:43.381Z,80.16
2023-01-17T23:25:15.893Z,80.19
2023-01-17T23:28:06.822Z,80.29
2023-01-17T23:30:42.360Z,80.50
2023-01-17T23:33:19.162Z,80.08
2023-01-17T23:35:49.752Z,80.44
2023-01-17T23:38:27.186Z,80.36
2023-01-17T23:41:27.541Z,80.01
2023-01-17T23:44:00.131Z,80.22
2023-01-17T23:46:31.430Z,80.07
2023-01-17T23:49:02.498Z,80.00
2023-01-17T23:51:32.727Z,80.42
2023-01-17T23:54:06.575Z,80.58
2023-01-17T23:56:37.651Z,80.69
2023-01-17T23:59:07.792Z,80.99
